KOKZ

Kaolin Field Airport

Sandersville, Georgia, USA
METAR KOKZ 210435Z AUTO 00000KT 10SM CLR 07/05 A3025 RMK AO2 T00700045
Observed Flight Rules
Jan-21 @ 04:35 UTC (18 minutes ago) Visual Flight Rules
Wind Visibility Clouds
Calm 10 miles
  • Clear skies
Temperatures Readings
Current 7°C / 45°F
Dewpoint 5°C / 41°F
Humidity 87%
Altimeter 30.25" Hg
Pressure 1024 hPa
Elevation 134
METAR KOKZ 210435Z AUTO 00000KT 10SM CLR 07/05 A3025 RMK AO2 T00700045
Observed Flight Rules
Jan-21 @ 04:35 UTC
(18 minutes ago)
VFR
Wind Visibility
Calm 10 miles
Clouds
  • Clear skies
Temperature Dewpoint
7°C / 45°F 5°C / 41°F
Humidity Altimeter Pressure
87% 30.25" Hg 1024 hPa